Time;durP1;ratioP1;P1;durP2;ratioP2;P2;SDS_P1;SDS_P2;PMS_P1;PMS_P2;Temp;Humidity;BMP_temperature;BMP_pressure;BME280_temperature;BME280_humidity;BME280_pressure;Samples;Min_cycle;Max_cycle;Signal;HPM_P1;HPM_P2
2022/11/13 00:01:51;;;;;;;0.40;0.40;;;;;;;11.76;86.46;102019.28;5067989;28;20079;-75
2022/11/13 00:04:16;;;;;;;0.40;0.40;;;;;;;11.74;86.56;102008.84;5066683;28;20025;-72
2022/11/13 00:06:42;;;;;;;0.40;0.40;;;;;;;11.71;86.27;102002.75;5066640;28;20025;-74
2022/11/13 00:09:10;;;;;;;0.40;0.40;;;;;;;11.71;86.90;102016.63;5066369;28;20029;-75
2022/11/13 00:11:36;;;;;;;0.40;0.40;;;;;;;11.65;86.88;102008.75;5067914;28;20056;-75
2022/11/13 00:14:01;;;;;;;0.75;0.75;;;;;;;11.62;87.23;102006.09;5067891;28;20059;-77
2022/11/13 00:16:26;;;;;;;0.93;0.93;;;;;;;11.62;87.68;102000.91;5067520;28;20052;-76
2022/11/13 00:18:52;;;;;;;0.40;0.40;;;;;;;11.62;87.94;101996.56;5067872;28;20021;-77
2022/11/13 00:21:22;;;;;;;1.15;1.15;;;;;;;11.59;87.97;101999.13;5067677;28;20493;-77
2022/11/13 00:23:47;;;;;;;0.55;0.55;;;;;;;11.55;88.07;101999.94;5066556;28;20639;-76
2022/11/13 00:26:27;;;;;;;0.80;0.60;;;;;;;11.55;88.42;102006.88;5067648;28;20033;-76
2022/11/13 00:28:59;;;;;;;0.40;0.40;;;;;;;11.53;88.37;102001.66;5067901;28;20024;-77
2022/11/13 00:31:24;;;;;;;0.40;0.40;;;;;;;11.50;88.70;101999.03;5067346;28;20021;-77
2022/11/13 00:33:51;;;;;;;0.75;0.75;;;;;;;11.51;88.70;102006.84;5066128;28;20020;-78
2022/11/13 00:36:21;;;;;;;1.20;1.20;;;;;;;11.54;88.69;102006.00;5067486;28;20412;-77
2022/11/13 00:38:47;;;;;;;0.50;0.50;;;;;;;11.55;88.84;102007.75;5066115;28;20032;-77
2022/11/13 00:41:12;;;;;;;0.40;0.40;;;;;;;11.57;88.71;102011.25;5067335;28;20028;-77
2022/11/13 00:43:38;;;;;;;1.50;1.40;;;;;;;11.57;88.76;102008.63;5067303;28;20025;-78
2022/11/13 00:46:04;;;;;;;0.40;0.40;;;;;;;11.59;88.65;102013.84;5067022;28;20029;-77
2022/11/13 00:48:29;;;;;;;0.40;0.40;;;;;;;11.60;88.61;102013.88;5065850;28;20023;-78
2022/11/13 00:50:55;;;;;;;0.40;0.40;;;;;;;11.61;88.67;102002.63;5067156;28;20020;-78
2022/11/13 00:53:20;;;;;;;1.08;1.08;;;;;;;11.65;88.79;102007.03;5065970;28;20092;-78
2022/11/13 00:55:46;;;;;;;0.47;0.47;;;;;;;11.64;88.52;101999.19;5065583;28;20049;-78
2022/11/13 00:58:12;;;;;;;0.40;0.40;;;;;;;11.71;88.32;102001.00;5067146;28;20482;-78
2022/11/13 01:00:39;;;;;;;0.40;0.40;;;;;;;11.79;88.23;102011.50;5066708;28;20025;-77
2022/11/13 01:03:04;;;;;;;0.40;0.40;;;;;;;11.75;88.58;102004.53;5065777;28;20017;-78
2022/11/13 01:05:30;;;;;;;0.50;0.50;;;;;;;11.75;88.58;101997.59;5065829;28;20074;-78
2022/11/13 01:07:56;;;;;;;0.40;0.40;;;;;;;11.86;87.94;102009.88;5067033;28;20064;-78
2022/11/13 01:10:22;;;;;;;0.40;0.40;;;;;;;11.87;88.37;102003.78;5065757;28;20032;-77
2022/11/13 01:12:48;;;;;;;0.40;0.40;;;;;;;11.87;88.12;102009.88;5067299;28;20604;-78
2022/11/13 01:15:13;;;;;;;0.40;0.40;;;;;;;11.90;88.28;102014.28;5066831;28;20025;-78
2022/11/13 01:17:38;;;;;;;0.40;0.40;;;;;;;11.94;88.22;102010.84;5066833;28;20051;-77
2022/11/13 01:20:04;;;;;;;0.40;0.40;;;;;;;11.98;88.12;102012.59;5066540;28;20056;-78
2022/11/13 01:22:30;;;;;;;0.40;0.40;;;;;;;12.02;87.87;102009.19;5066711;28;20107;-78
2022/11/13 01:24:55;;;;;;;1.25;1.15;;;;;;;12.04;87.74;102004.00;5066500;28;20044;-78
2022/11/13 01:27:20;;;;;;;0.40;0.40;;;;;;;12.02;87.49;102006.59;5066691;28;20040;-77
2022/11/13 01:29:46;;;;;;;0.40;0.40;;;;;;;11.98;87.61;101996.13;5066358;28;20021;-77
2022/11/13 01:32:11;;;;;;;0.50;0.50;;;;;;;11.96;87.73;102003.94;5064886;28;20090;-77
2022/11/13 01:34:36;;;;;;;0.38;0.38;;;;;;;11.95;88.00;101993.50;5066666;28;20025;-77
2022/11/13 01:37:02;;;;;;;0.40;0.40;;;;;;;11.95;87.95;102001.31;5067558;28;20048;-78
2022/11/13 01:39:27;;;;;;;0.40;0.40;;;;;;;11.98;88.01;101996.97;5067885;28;20032;-78
2022/11/13 01:41:53;;;;;;;0.40;0.40;;;;;;;11.96;87.88;102000.44;5066278;28;20032;-77
2022/11/13 01:44:19;;;;;;;1.50;1.40;;;;;;;12.03;87.95;102002.25;5065017;28;20027;-77
2022/11/13 01:46:55;;;;;;;0.40;0.40;;;;;;;11.99;88.16;101995.28;5066030;28;20049;-77
2022/11/13 01:49:33;;;;;;;0.40;0.40;;;;;;;12.06;87.72;101999.66;5065535;28;20055;-77
2022/11/13 01:52:01;;;;;;;0.40;0.40;;;;;;;12.01;88.19;101997.03;5064857;28;20036;-78
2022/11/13 01:54:32;;;;;;;0.40;0.40;;;;;;;12.03;87.99;101997.03;5065886;28;20037;-77
2022/11/13 01:56:58;;;;;;;0.40;0.40;;;;;;;12.00;88.14;101986.59;5066122;28;20029;-78
2022/11/13 01:59:31;;;;;;;0.52;0.52;;;;;;;11.99;88.27;101983.13;5066385;28;20105;-77
2022/11/13 02:01:57;;;;;;;0.40;0.40;;;;;;;12.01;88.04;101976.19;5066044;28;20029;-78
2022/11/13 02:04:23;;;;;;;0.40;0.40;;;;;;;12.02;87.97;101966.66;5066082;28;20028;-77
2022/11/13 02:07:01;;;;;;;0.40;0.40;;;;;;;11.95;87.94;101963.13;5048016;28;20476;-77
2022/11/13 02:09:32;;;;;;;0.40;0.40;;;;;;;12.01;87.97;101978.81;5065765;28;20024;-77
2022/11/13 02:11:58;;;;;;;0.50;0.50;;;;;;;11.98;88.14;101975.31;5065901;28;20029;-78
2022/11/13 02:14:25;;;;;;;0.50;0.50;;;;;;;12.00;88.22;101976.19;5065934;28;20092;-77
2022/11/13 02:16:55;;;;;;;0.40;0.40;;;;;;;11.96;88.30;101971.81;5047614;28;20017;-77
2022/11/13 02:19:26;;;;;;;0.40;0.40;;;;;;;11.94;88.59;101966.59;5047604;28;20067;-76
2022/11/13 02:22:09;;;;;;;0.53;0.53;;;;;;;11.93;88.70;101969.19;5065750;28;20309;-77
2022/11/13 02:24:42;;;;;;;0.40;0.40;;;;;;;11.90;88.93;101970.03;5065335;28;20036;-77
2022/11/13 02:27:18;;;;;;;0.40;0.40;;;;;;;11.86;89.29;101968.22;5065660;28;20166;-76
2022/11/13 02:29:44;;;;;;;0.50;0.50;;;;;;;11.81;89.61;101969.91;5047542;28;20054;-76
2022/11/13 02:32:09;;;;;;;0.40;0.40;;;;;;;11.77;90.12;101971.59;5065136;28;20078;-78
2022/11/13 02:34:34;;;;;;;0.40;0.40;;;;;;;11.73;90.30;101972.41;5047523;28;20020;-75
2022/11/13 02:37:00;;;;;;;0.50;0.50;;;;;;;11.75;90.39;101965.50;5047478;28;20081;-76
2022/11/13 02:39:25;;;;;;;0.40;0.40;;;;;;;11.71;90.66;101967.19;5047312;28;20084;-75
2022/11/13 02:41:50;;;;;;;7.85;1.98;;;;;;;11.73;90.95;101967.19;5047409;28;20029;-76
2022/11/13 02:44:16;;;;;;;0.40;0.40;;;;;;;11.71;91.10;101967.19;5047347;28;20017;-76
2022/11/13 02:46:41;;;;;;;0.40;0.40;;;;;;;11.71;91.31;101966.34;5046928;28;20427;-77
2022/11/13 02:49:06;;;;;;;0.70;0.70;;;;;;;11.62;91.30;101952.34;5047425;28;20029;-75
2022/11/13 02:51:32;;;;;;;0.40;0.40;;;;;;;11.74;91.33;101953.34;5047190;28;20025;-75
2022/11/13 02:53:57;;;;;;;0.50;0.50;;;;;;;11.68;91.49;101954.16;5065258;28;20028;-75
2022/11/13 02:56:23;;;;;;;0.40;0.40;;;;;;;11.70;91.64;101954.16;5065175;28;20060;-76
2022/11/13 02:58:48;;;;;;;0.40;0.40;;;;;;;11.74;91.41;101955.97;5047146;28;20078;-75
2022/11/13 03:01:13;;;;;;;1.20;1.20;;;;;;;11.75;91.61;101963.78;5046985;28;20031;-75
2022/11/13 03:03:39;;;;;;;0.63;0.63;;;;;;;11.74;91.55;101964.63;5050952;28;20028;-75
2022/11/13 03:06:04;;;;;;;0.40;0.40;;;;;;;11.78;91.51;101970.75;5051200;28;20024;-75
2022/11/13 03:08:30;;;;;;;0.40;0.40;;;;;;;11.83;91.33;101969.06;5051275;28;20028;-74
2022/11/13 03:10:56;;;;;;;0.40;0.40;;;;;;;11.85;91.26;101969.94;5068878;28;20051;-74
2022/11/13 03:13:21;;;;;;;1.50;1.40;;;;;;;11.89;91.29;101973.47;5068929;28;20448;-74
2022/11/13 03:15:46;;;;;;;0.40;0.40;;;;;;;11.83;91.17;101961.28;5050645;28;20025;-75
2022/11/13 03:18:12;;;;;;;0.60;0.60;;;;;;;11.81;91.60;101968.19;5069116;28;20029;-75
2022/11/13 03:20:40;;;;;;;0.40;0.40;;;;;;;11.77;91.50;101966.41;5068926;28;20033;-75
2022/11/13 03:23:05;;;;;;;0.40;0.40;;;;;;;11.77;91.76;101964.66;5050968;28;20035;-75
2022/11/13 03:25:33;;;;;;;0.45;0.45;;;;;;;11.70;92.17;101956.75;5068845;28;20048;-76
2022/11/13 03:27:59;;;;;;;0.52;0.52;;;;;;;11.71;92.51;101961.97;5068801;28;20033;-75
2022/11/13 03:30:24;;;;;;;0.40;0.40;;;;;;;11.73;92.41;101965.50;5068486;28;20063;-74
2022/11/13 03:32:54;;;;;;;0.40;0.40;;;;;;;11.68;92.47;101959.34;5068762;28;20021;-74
2022/11/13 03:35:21;;;;;;;0.40;0.40;;;;;;;11.71;92.71;101972.38;5068575;28;20021;-74
2022/11/13 03:37:46;;;;;;;0.40;0.40;;;;;;;11.60;93.21;101961.84;5068559;28;20048;-74
2022/11/13 03:40:12;;;;;;;0.50;0.50;;;;;;;11.61;93.32;101953.19;5068462;28;20029;-75
2022/11/13 03:42:37;;;;;;;0.40;0.40;;;;;;;11.67;93.23;101964.53;5068709;28;20427;-74
2022/11/13 03:45:03;;;;;;;0.40;0.40;;;;;;;11.64;93.21;101953.25;5068431;28;20028;-74
2022/11/13 03:47:28;;;;;;;0.40;0.40;;;;;;;11.74;93.12;101958.56;5068228;28;20044;-74
2022/11/13 03:49:54;;;;;;;0.40;0.40;;;;;;;11.68;93.29;101945.50;5068391;28;20053;-73
2022/11/13 03:52:19;;;;;;;2.47;1.35;;;;;;;11.69;93.16;101947.22;5068320;28;20037;-74
2022/11/13 03:54:44;;;;;;;0.40;0.40;;;;;;;11.68;93.37;101948.09;5052049;28;20049;-73
2022/11/13 03:57:09;;;;;;;0.40;0.40;;;;;;;11.64;93.13;101950.66;5068096;28;20017;-75
2022/11/13 03:59:35;;;;;;;0.63;0.55;;;;;;;11.60;93.50;101938.44;5068235;28;20484;-72
2022/11/13 04:02:00;;;;;;;0.60;0.60;;;;;;;11.68;93.81;101959.34;5068178;28;20033;-74
2022/11/13 04:04:25;;;;;;;0.40;0.40;;;;;;;11.63;93.86;101961.00;5066759;28;20487;-74
2022/11/13 04:06:51;;;;;;;0.50;0.50;;;;;;;11.62;93.81;101957.56;5068047;28;20063;-74
2022/11/13 04:09:16;;;;;;;0.40;0.40;;;;;;;11.69;93.81;101957.63;5066730;28;20060;-75
2022/11/13 04:11:41;;;;;;;0.40;0.40;;;;;;;11.66;93.81;101953.28;5068102;28;20033;-74
2022/11/13 04:14:07;;;;;;;0.40;0.40;;;;;;;11.68;93.96;101953.28;5066337;28;20029;-75
2022/11/13 04:16:32;;;;;;;1.00;0.80;;;;;;;11.60;93.95;101942.75;5067858;28;20084;-74
2022/11/13 04:18:57;;;;;;;0.40;0.40;;;;;;;11.62;94.27;101952.34;5068033;28;20025;-75
2022/11/13 04:21:23;;;;;;;0.40;0.40;;;;;;;11.62;94.35;101956.69;5067885;28;20397;-74
2022/11/13 04:23:48;;;;;;;0.40;0.40;;;;;;;11.57;94.89;101953.13;5067917;28;20031;-74
2022/11/13 04:26:13;;;;;;;0.50;0.50;;;;;;;11.57;94.84;101951.41;5067784;28;20039;-74
2022/11/13 04:28:39;;;;;;;0.47;0.47;;;;;;;11.59;95.10;101951.44;5067736;28;20029;-74
2022/11/13 04:31:05;;;;;;;0.40;0.40;;;;;;;11.57;95.07;101950.53;5065799;28;20029;-75
2022/11/13 04:33:30;;;;;;;0.40;0.40;;;;;;;11.55;95.29;101950.50;5066062;28;20067;-75
2022/11/13 04:35:55;;;;;;;0.40;0.40;;;;;;;11.51;95.43;101953.94;5067452;28;20028;-74
2022/11/13 04:38:21;;;;;;;0.40;0.40;;;;;;;11.52;95.45;101961.75;5067500;28;20025;-75
2022/11/13 04:40:50;;;;;;;0.40;0.40;;;;;;;11.58;95.07;101958.34;5067276;28;20420;-75
2022/11/13 04:43:15;;;;;;;0.40;0.40;;;;;;;11.61;95.04;101952.34;5067235;28;20020;-74
2022/11/13 04:45:41;;;;;;;0.50;0.50;;;;;;;11.57;94.87;101961.81;5065893;28;20025;-75
2022/11/13 04:48:06;;;;;;;0.40;0.40;;;;;;;11.59;94.95;101973.13;5065959;28;20024;-74
2022/11/13 04:50:31;;;;;;;0.40;0.40;;;;;;;11.62;95.01;101973.16;5067273;28;20476;-73
2022/11/13 04:52:57;;;;;;;0.40;0.40;;;;;;;11.61;94.99;101962.75;5066886;28;20025;-74
2022/11/13 04:55:22;;;;;;;1.90;1.80;;;;;;;11.65;94.90;101960.19;5066991;28;20060;-74
2022/11/13 04:57:50;;;;;;;0.40;0.40;;;;;;;11.60;94.93;101967.06;5066959;28;20040;-73
2022/11/13 05:00:16;;;;;;;1.52;1.42;;;;;;;11.63;95.23;101968.81;5067012;28;20021;-72
2022/11/13 05:02:41;;;;;;;0.60;0.60;;;;;;;11.70;94.81;101965.44;5048826;28;20067;-73
2022/11/13 05:05:07;;;;;;;0.40;0.40;;;;;;;11.72;94.95;101968.06;5048944;28;20029;-73
2022/11/13 05:07:33;;;;;;;0.40;0.40;;;;;;;11.71;94.77;101963.72;5066885;28;20028;-72
2022/11/13 05:09:58;;;;;;;0.40;0.40;;;;;;;11.69;95.11;101962.84;5066770;28;20036;-71
2022/11/13 05:12:23;;;;;;;0.30;0.30;;;;;;;11.67;94.97;101965.41;5066815;28;20033;-72
2022/11/13 05:14:49;;;;;;;0.40;0.40;;;;;;;11.69;94.82;101965.44;5066623;28;20088;-72
2022/11/13 05:17:14;;;;;;;0.40;0.40;;;;;;;11.72;94.78;101957.66;5066491;28;20025;-72
2022/11/13 05:19:39;;;;;;;0.40;0.40;;;;;;;11.68;94.59;101956.75;5048513;28;20036;-71
2022/11/13 05:22:05;;;;;;;0.40;0.40;;;;;;;11.68;94.71;101951.53;5066472;28;20045;-73
2022/11/13 05:24:30;;;;;;;0.40;0.40;;;;;;;11.61;94.83;101940.19;5047890;28;20020;-73
2022/11/13 05:26:56;;;;;;;0.40;0.40;;;;;;;11.69;94.91;101947.22;5048620;28;20116;-74
2022/11/13 05:29:21;;;;;;;0.43;0.43;;;;;;;11.67;95.08;101948.91;5066491;28;20360;-74
2022/11/13 05:31:47;;;;;;;0.38;0.38;;;;;;;11.60;95.17;101953.16;5066045;28;20362;-73
2022/11/13 05:34:13;;;;;;;0.40;0.40;;;;;;;11.61;95.35;101955.78;5066149;28;20060;-74
2022/11/13 05:36:38;;;;;;;0.40;0.40;;;;;;;11.64;95.07;101958.47;5048248;28;20017;-73
2022/11/13 05:39:04;;;;;;;0.40;0.40;;;;;;;11.67;95.17;101944.59;5066202;28;20037;-73
2022/11/13 05:41:29;;;;;;;0.30;0.30;;;;;;;11.65;95.23;101952.38;5066197;28;20021;-73
2022/11/13 05:43:54;;;;;;;0.40;0.40;;;;;;;11.64;95.04;101940.25;5048263;28;20020;-73
2022/11/13 05:46:28;;;;;;;0.40;0.40;;;;;;;11.62;95.39;101943.66;5066072;28;20031;-73
2022/11/13 05:48:57;;;;;;;0.40;0.40;;;;;;;11.63;95.13;101942.81;5048072;28;20100;-73
2022/11/13 05:51:25;;;;;;;0.40;0.40;;;;;;;11.59;95.28;101941.91;5047994;28;20020;-72
2022/11/13 05:53:52;;;;;;;0.40;0.40;;;;;;;11.56;95.29;101935.78;5065872;28;20040;-72
2022/11/13 05:56:20;;;;;;;0.40;0.40;;;;;;;11.50;95.54;101939.22;5062762;28;20068;-72
2022/11/13 05:58:47;;;;;;;0.50;0.50;;;;;;;11.60;94.99;101943.66;5064742;28;20021;-73
2022/11/13 06:01:22;;;;;;;0.40;0.40;;;;;;;11.60;95.25;101947.97;5065559;28;20021;-72
2022/11/13 06:03:48;;;;;;;0.40;0.40;;;;;;;11.57;95.49;101937.53;5065904;28;20013;-73
2022/11/13 06:06:15;;;;;;;0.30;0.30;;;;;;;11.59;95.43;101946.22;5064335;28;20021;-73
2022/11/13 06:08:41;;;;;;;0.40;0.40;;;;;;;11.62;95.22;101952.34;5064467;28;20043;-73
2022/11/13 06:11:10;;;;;;;0.40;0.40;;;;;;;11.63;95.20;101954.09;5065538;28;20025;-74
2022/11/13 06:13:36;;;;;;;0.40;0.40;;;;;;;11.56;95.41;101947.06;5064239;28;20056;-73
2022/11/13 06:16:14;;;;;;;0.40;0.40;;;;;;;11.59;95.56;101951.44;5065428;28;20031;-73
2022/11/13 06:18:41;;;;;;;0.40;0.40;;;;;;;11.60;95.45;101950.56;5065756;28;20036;-74
2022/11/13 06:21:18;;;;;;;0.40;0.40;;;;;;;11.56;95.93;101954.00;5065348;28;20080;-73
2022/11/13 06:23:43;;;;;;;0.40;0.40;;;;;;;11.49;96.34;101950.44;5065608;28;20096;-73
2022/11/13 06:26:16;;;;;;;0.40;0.40;;;;;;;11.58;96.03;101953.16;5065534;28;20143;-75
2022/11/13 06:28:42;;;;;;;0.40;0.40;;;;;;;11.57;96.04;101947.94;5065506;28;20040;-74
2022/11/13 06:31:10;;;;;;;0.40;0.40;;;;;;;11.60;96.19;101954.06;5065032;28;20123;-75
2022/11/13 06:33:36;;;;;;;0.40;0.40;;;;;;;11.64;96.21;101954.97;5064081;28;20085;-76
2022/11/13 06:36:07;;;;;;;0.40;0.40;;;;;;;11.59;96.75;101956.63;5065402;28;20029;-75
2022/11/13 06:38:34;;;;;;;0.52;0.52;;;;;;;11.52;96.51;101953.97;5065648;28;20021;-75
2022/11/13 06:41:00;;;;;;;0.40;0.40;;;;;;;11.51;96.56;101951.34;5065492;28;20049;-76
2022/11/13 06:43:27;;;;;;;0.30;0.30;;;;;;;11.47;96.95;101950.41;5065556;28;20032;-75
2022/11/13 06:45:53;;;;;;;0.40;0.40;;;;;;;11.53;96.61;101953.09;5063966;28;20028;-75
2022/11/13 06:48:18;;;;;;;1.52;0.93;;;;;;;11.46;97.06;101966.00;5063906;28;20056;-75
2022/11/13 06:50:44;;;;;;;0.40;0.40;;;;;;;11.46;96.88;101966.88;5063636;28;20021;-75
2022/11/13 06:53:09;;;;;;;0.40;0.40;;;;;;;11.46;96.96;101961.69;5063800;28;20048;-76
2022/11/13 06:55:35;;;;;;;0.40;0.40;;;;;;;11.48;97.11;101960.00;5063711;28;20219;-76
2022/11/13 06:58:00;;;;;;;0.77;0.77;;;;;;;11.51;97.27;101973.03;5063826;28;20028;-76
2022/11/13 07:00:25;;;;;;;0.40;0.40;;;;;;;11.53;97.00;101970.44;5063344;28;20021;-74
2022/11/13 07:02:51;;;;;;;0.40;0.40;;;;;;;11.58;97.00;101971.34;5065058;28;20021;-76
2022/11/13 07:05:16;;;;;;;0.40;0.40;;;;;;;11.55;97.30;101968.72;5063436;28;20043;-77
2022/11/13 07:07:42;;;;;;;0.40;0.40;;;;;;;11.55;97.59;101978.28;5063824;28;20088;-76
2022/11/13 07:10:07;;;;;;;0.40;0.40;;;;;;;11.48;97.57;101956.50;5065212;28;20029;-76
2022/11/13 07:12:33;;;;;;;0.40;0.40;;;;;;;11.45;97.64;101959.06;5064893;28;20096;-76
2022/11/13 07:14:58;;;;;;;0.40;0.40;;;;;;;11.52;97.38;101963.47;5064923;28;20037;-76
2022/11/13 07:17:23;;;;;;;0.40;0.40;;;;;;;11.55;97.79;101968.72;5064850;28;20079;-75
2022/11/13 07:19:49;;;;;;;0.40;0.40;;;;;;;11.48;97.76;101964.31;5064721;28;20033;-75
2022/11/13 07:22:14;;;;;;;0.57;0.57;;;;;;;11.52;97.72;101973.88;5065033;28;20091;-75
2022/11/13 07:24:41;;;;;;;0.40;0.40;;;;;;;11.44;98.14;101968.59;5064926;28;20032;-75
2022/11/13 07:27:07;;;;;;;0.35;0.35;;;;;;;11.47;98.00;101978.19;5064819;28;20046;-75
2022/11/13 07:29:32;;;;;;;0.98;0.98;;;;;;;11.42;98.53;101980.72;5063343;28;20048;-75
2022/11/13 07:31:57;;;;;;;1.63;1.20;;;;;;;11.40;98.62;101985.00;5063256;28;20025;-75
2022/11/13 07:34:23;;;;;;;0.40;0.40;;;;;;;11.47;98.04;101972.97;5063449;28;20025;-75
2022/11/13 07:36:48;;;;;;;0.40;0.40;;;;;;;11.49;98.33;101968.66;5064845;28;20031;-75
2022/11/13 07:39:13;;;;;;;0.40;0.40;;;;;;;11.59;98.55;101977.44;5064686;28;20029;-75
2022/11/13 07:41:39;;;;;;;0.40;0.40;;;;;;;11.61;98.27;101974.00;5064853;28;20033;-74
2022/11/13 07:44:04;;;;;;;0.50;0.50;;;;;;;11.60;98.44;101973.97;5064709;28;20033;-75
2022/11/13 07:46:32;;;;;;;0.40;0.40;;;;;;;11.50;98.46;101976.47;5064532;28;20025;-75
2022/11/13 07:48:57;;;;;;;0.40;0.40;;;;;;;11.60;98.35;101974.88;5065520;28;20023;-74
2022/11/13 07:51:23;;;;;;;0.40;0.40;;;;;;;11.61;98.55;101975.75;5068063;28;20024;-74
2022/11/13 07:53:48;;;;;;;0.40;0.40;;;;;;;11.62;98.75;101977.47;5066711;28;20033;-74
2022/11/13 07:56:13;;;;;;;0.40;0.40;;;;;;;11.63;98.77;101977.50;5066916;28;20083;-74
2022/11/13 07:58:39;;;;;;;0.40;0.40;;;;;;;11.70;98.69;101978.47;5067006;28;20040;-75
2022/11/13 08:01:05;;;;;;;0.40;0.40;;;;;;;11.77;99.18;101979.41;5067778;28;20075;-73
2022/11/13 08:03:31;;;;;;;0.40;0.40;;;;;;;11.82;99.27;101980.31;5067990;28;20039;-74
2022/11/13 08:06:01;;;;;;;0.40;0.40;;;;;;;11.82;99.05;101964.72;5068053;28;20049;-74
2022/11/13 08:08:27;;;;;;;0.50;0.50;;;;;;;11.84;99.30;101973.41;5068091;28;20534;-71
2022/11/13 08:10:52;;;;;;;0.40;0.40;;;;;;;11.80;99.73;101957.75;5066618;28;20088;-73
2022/11/13 08:13:18;;;;;;;0.40;0.40;;;;;;;11.83;99.38;101973.41;5068126;28;20222;-74
2022/11/13 08:15:43;;;;;;;0.40;0.40;;;;;;;11.77;99.77;101962.06;5067691;28;20025;-72
2022/11/13 08:18:08;;;;;;;0.40;0.40;;;;;;;11.86;99.52;101976.91;5068039;28;20017;-73
2022/11/13 08:20:34;;;;;;;0.40;0.40;;;;;;;11.85;99.89;101977.75;5067466;28;20025;-72
2022/11/13 08:23:01;;;;;;;0.77;0.77;;;;;;;11.80;99.96;101971.66;5067784;28;20045;-72
2022/11/13 08:25:28;;;;;;;1.60;1.50;;;;;;;11.82;99.38;101976.88;5067854;28;20025;-73
2022/11/13 08:27:54;;;;;;;0.40;0.40;;;;;;;11.80;99.57;101979.44;5068013;28;20067;-72
2022/11/13 08:30:20;;;;;;;2.00;1.77;;;;;;;11.83;99.60;101976.88;5067502;28;20029;-72
2022/11/13 08:32:48;;;;;;;0.40;0.40;;;;;;;11.80;100.00;101982.06;5067437;28;20051;-72
2022/11/13 08:35:13;;;;;;;0.40;0.40;;;;;;;11.76;100.00;101980.25;5066122;28;20029;-72
2022/11/13 08:37:39;;;;;;;0.40;0.40;;;;;;;11.81;100.00;101985.50;5067566;28;20036;-71
2022/11/13 08:40:05;;;;;;;0.60;0.60;;;;;;;11.92;100.00;101980.44;5067264;28;20053;-72
2022/11/13 08:42:30;;;;;;;0.40;0.40;;;;;;;11.95;100.00;101985.69;5067617;28;20024;-69
2022/11/13 08:44:55;;;;;;;0.40;0.40;;;;;;;11.97;100.00;101987.44;5065989;28;20016;-74
2022/11/13 08:47:21;;;;;;;0.40;0.40;;;;;;;11.98;99.94;101990.94;5066934;28;20773;-73
2022/11/13 08:49:46;;;;;;;0.73;0.73;;;;;;;12.03;100.00;101989.22;5067189;28;20056;-73
2022/11/13 08:52:11;;;;;;;0.40;0.40;;;;;;;12.13;100.00;101990.25;5067129;28;20028;-74
2022/11/13 08:54:37;;;;;;;0.55;0.55;;;;;;;12.19;100.00;101986.84;5067064;28;20048;-72
2022/11/13 08:57:02;;;;;;;0.30;0.30;;;;;;;12.20;100.00;101985.97;5067069;28;20349;-74
2022/11/13 08:59:28;;;;;;;0.38;0.38;;;;;;;12.24;100.00;101995.56;5047910;28;20047;-73
2022/11/13 09:01:58;;;;;;;0.50;0.50;;;;;;;12.33;100.00;101995.63;5066830;28;20032;-74
2022/11/13 09:04:27;;;;;;;0.40;0.40;;;;;;;12.44;100.00;101994.88;5048910;28;20021;-73
2022/11/13 09:06:52;;;;;;;0.40;0.40;;;;;;;12.45;100.00;101997.50;5066936;28;20033;-73
2022/11/13 09:09:19;;;;;;;0.40;0.40;;;;;;;12.48;100.00;101999.25;5048650;28;20032;-74
2022/11/13 09:11:44;;;;;;;0.40;0.40;;;;;;;12.50;100.00;101998.44;5066608;28;20025;-74
2022/11/13 09:14:09;;;;;;;1.45;1.35;;;;;;;12.52;100.00;101998.44;5048699;28;20021;-75
2022/11/13 09:16:35;;;;;;;0.40;0.40;;;;;;;12.59;100.00;101999.34;5066437;28;20469;-75
2022/11/13 09:19:01;;;;;;;0.30;0.30;;;;;;;12.64;100.00;102006.38;5066704;28;20032;-74
2022/11/13 09:21:26;;;;;;;0.30;0.30;;;;;;;12.66;100.00;102010.69;5048576;28;20487;-74
2022/11/13 09:23:51;;;;;;;0.40;0.40;;;;;;;12.59;100.00;102010.66;5066468;28;20155;-73
2022/11/13 09:26:17;;;;;;;0.40;0.40;;;;;;;12.56;99.36;102008.03;5066509;28;20024;-72
2022/11/13 09:28:42;;;;;;;0.35;0.35;;;;;;;12.50;99.87;102010.56;5066588;28;20024;-74
2022/11/13 09:31:08;;;;;;;0.40;0.40;;;;;;;12.45;99.46;102005.31;5066317;28;20024;-72
2022/11/13 09:33:34;;;;;;;0.40;0.40;;;;;;;12.33;100.00;102019.06;5066377;28;20080;-72
2022/11/13 09:36:00;;;;;;;0.73;0.73;;;;;;;12.25;99.53;102005.13;5066453;28;20017;-71
2022/11/13 09:38:25;;;;;;;0.40;0.40;;;;;;;12.31;99.68;102006.91;5066398;28;20052;-72
2022/11/13 09:41:07;;;;;;;0.30;0.30;;;;;;;12.39;99.92;102003.53;5065703;28;20052;-72
2022/11/13 09:43:48;;;;;;;0.60;0.60;;;;;;;12.44;100.00;102011.41;5066133;28;20027;-72
2022/11/13 09:46:19;;;;;;;0.50;0.50;;;;;;;12.36;100.00;102019.09;5066000;28;20025;-70
2022/11/13 09:48:55;;;;;;;0.40;0.40;;;;;;;12.30;100.00;102018.19;5066062;28;20025;-71
2022/11/13 09:51:35;;;;;;;0.40;0.40;;;;;;;12.28;100.00;102026.00;5047966;28;20029;-71
2022/11/13 09:54:05;;;;;;;0.40;0.40;;;;;;;12.27;99.81;102021.63;5065961;28;20025;-71
2022/11/13 09:56:35;;;;;;;0.30;0.30;;;;;;;12.26;100.00;102019.88;5064111;28;20056;-71
2022/11/13 09:59:19;;;;;;;0.80;0.80;;;;;;;12.27;99.92;102021.63;5064698;28;20017;-71
2022/11/13 10:01:52;;;;;;;0.40;0.40;;;;;;;12.21;99.63;102024.16;5065621;28;20084;-70
2022/11/13 10:04:33;;;;;;;0.40;0.40;;;;;;;12.21;99.48;102024.16;5064667;28;20017;-71
2022/11/13 10:07:27;;;;;;;0.40;0.40;;;;;;;12.19;99.56;102026.75;5064435;28;20048;-70
2022/11/13 10:09:56;;;;;;;0.40;0.40;;;;;;;12.20;100.00;102025.03;5065600;28;20504;-70
2022/11/13 10:12:21;;;;;;;0.40;0.40;;;;;;;12.19;100.00;102023.28;5065121;28;20111;-70
2022/11/13 10:14:51;;;;;;;0.40;0.40;;;;;;;12.22;99.44;102025.94;5065383;28;20025;-69
2022/11/13 10:17:30;;;;;;;0.40;0.40;;;;;;;12.14;99.78;102023.25;5063961;28;20020;-71
2022/11/13 10:19:58;;;;;;;0.40;0.40;;;;;;;12.14;100.00;102018.03;5064178;28;20021;-70
2022/11/13 10:22:31;;;;;;;0.32;0.32;;;;;;;12.18;100.00;102035.44;5065431;28;20106;-70
2022/11/13 10:25:18;;;;;;;0.40;0.40;;;;;;;12.11;99.51;102024.06;5065472;28;20078;-70
2022/11/13 10:27:49;;;;;;;0.40;0.40;;;;;;;12.16;99.42;102023.25;5064111;28;20024;-70
2022/11/13 10:30:16;;;;;;;0.40;0.40;;;;;;;12.17;99.44;102025.88;5063903;28;20052;-71
2022/11/13 10:32:43;;;;;;;0.40;0.40;;;;;;;12.25;99.79;102028.56;5065284;28;20036;-70
2022/11/13 10:35:27;;;;;;;0.40;0.40;;;;;;;12.30;99.31;102019.06;5063963;28;20021;-70
2022/11/13 10:38:06;;;;;;;2.95;1.30;;;;;;;12.38;99.89;102022.63;5065161;28;20020;-70
2022/11/13 10:40:38;;;;;;;0.30;0.30;;;;;;;12.52;99.76;102020.13;5065213;28;20029;-72
2022/11/13 10:43:22;;;;;;;0.40;0.40;;;;;;;12.66;100.00;102019.41;5065132;28;20028;-73
2022/11/13 10:46:00;;;;;;;0.30;0.30;;;;;;;12.70;99.85;102013.34;5063645;28;20504;-73
2022/11/13 10:48:33;;;;;;;0.40;0.40;;;;;;;12.79;100.00;102012.56;5065561;28;20025;-73
2022/11/13 10:51:18;;;;;;;0.38;0.38;;;;;;;12.87;99.67;102005.69;5065224;28;20027;-73
2022/11/13 10:53:45;;;;;;;0.40;0.40;;;;;;;12.96;100.00;102004.00;5064815;28;20477;-73
2022/11/13 10:56:32;;;;;;;0.40;0.40;;;;;;;13.11;100.00;102017.16;5063499;28;20498;-74
2022/11/13 10:59:15;;;;;;;0.40;0.40;;;;;;;13.19;100.00;102008.50;5063892;28;20125;-75
2022/11/13 11:01:42;;;;;;;0.40;0.40;;;;;;;13.23;100.00;102007.66;5063338;28;20021;-73
2022/11/13 11:04:23;;;;;;;0.40;0.40;;;;;;;13.29;100.00;102012.91;5063780;28;20021;-73
2022/11/13 11:06:50;;;;;;;0.50;0.50;;;;;;;13.33;100.00;102005.97;5063603;28;20029;-72
2022/11/13 11:09:26;;;;;;;0.40;0.40;;;;;;;13.32;100.00;102012.91;5063622;28;20032;-70
2022/11/13 11:12:28;;;;;;;0.40;0.40;;;;;;;13.35;99.88;102012.97;5064731;28;20368;-71
2022/11/13 11:14:58;;;;;;;0.40;0.40;;;;;;;13.38;100.00;102019.91;5064342;28;20083;-69
2022/11/13 11:17:56;;;;;;;0.30;0.30;;;;;;;13.34;99.79;102008.59;5064732;28;20044;-70
2022/11/13 11:20:41;;;;;;;0.30;0.30;;;;;;;13.18;99.91;102010.22;5063651;28;20024;-68
2022/11/13 11:23:44;;;;;;;0.30;0.30;;;;;;;13.12;99.03;102008.47;5066172;28;20021;-69
2022/11/13 11:26:34;;;;;;;0.40;0.40;;;;;;;13.21;98.63;102007.63;5068826;28;20056;-73
2022/11/13 11:29:19;;;;;;;0.40;0.40;;;;;;;13.21;99.01;102006.78;5068846;28;20226;-74